RKPC/CJU METAR and TAF weather

Enter ICAO airport designator
Station Type Date Time Source
RKPC METAR 2021/09/24 06:00 UTC NOAA

RKPC 240600Z 07018KT 9999 FEW030 25/20 Q1020 NOSIG


Station Type Date Time Source
RKPC Decoded METAR 2021/09/24 06:00 UTC NOAA

Cheju International Airport, Korea, South (RKPC) 33-30N 126-30E 28M
Sep 24, 2021 - 02:00 AM EDT / 2021.09.24 0600 UTC
Wind: from the ENE (070 degrees) at 21 MPH (18 KT):0
Visibility: greater than 7 mile(s):0
Sky conditions: mostly clear
Temperature: 77 F (25 C)
Dew Point: 68 F (20 C)
Relative Humidity: 73%
Pressure (altimeter): 30.12 in. Hg (1020 hPa)
ob: RKPC 240600Z 07018KT 9999 FEW030 25/20 Q1020 NOSIG
cycle: 6

Station Type Date Time Source
RKPC TAF 2021/09/24 06:06 UTC NOAA

TAF TAF RKPC 240500Z 2406/2512 06015G25KT 9999 SCT030 TN20/2420Z TX25/2505Z
BECMG 2409/2410 09010KT
BECMG 2413/2414 BKN030
BECMG 2500/2501 07017G27KT SCT030 BKN200
BECMG 2509/2510 09010KT

Example: see airport list